Time;durP1;ratioP1;P1;durP2;ratioP2;P2;SDS_P1;SDS_P2;PMS_P1;PMS_P2;Temp;Humidity;BMP_temperature;BMP_pressure;BME280_temperature;BME280_humidity;BME280_pressure;Samples;Min_cycle;Max_cycle;Signal;HPM_P1;HPM_P2
2023/01/07 00:01:34;;;;;;;7.67;5.30;;;11.30;1.00;;;;;;5027107;28;20456;-74
2023/01/07 00:04:02;;;;;;;11.53;7.60;;;11.30;1.00;;;;;;5022185;28;20437;-72
2023/01/07 00:06:31;;;;;;;8.03;5.87;;;11.40;1.00;;;;;;5030564;28;20515;-74
2023/01/07 00:08:57;;;;;;;7.57;5.47;;;11.40;1.00;;;;;;5030872;28;20773;-72
2023/01/07 00:11:35;;;;;;;9.97;6.43;;;11.40;1.00;;;;;;5029724;28;20935;-72
2023/01/07 00:14:03;;;;;;;8.33;6.23;;;11.40;1.00;;;;;;5033626;28;20448;-72
2023/01/07 00:16:30;;;;;;;7.10;4.87;;;11.40;1.00;;;;;;5027362;28;20421;-73
2023/01/07 00:18:58;;;;;;;11.67;8.30;;;11.30;1.00;;;;;;5030223;28;20428;-73
2023/01/07 00:21:24;;;;;;;12.37;8.30;;;11.30;1.00;;;;;;5033343;28;20934;-70
2023/01/07 00:23:55;;;;;;;8.90;6.40;;;11.30;1.00;;;;;;5039272;28;20435;-73
2023/01/07 00:26:21;;;;;;;6.80;5.07;;;11.30;1.00;;;;;;5041300;28;20798;-72
2023/01/07 00:28:49;;;;;;;6.80;5.30;;;11.30;1.00;;;;;;5031062;28;20432;-73
2023/01/07 00:31:18;;;;;;;26.93;15.60;;;11.20;1.00;;;;;;5028549;28;20549;-72
2023/01/07 00:34:05;;;;;;;10.03;6.90;;;11.30;1.00;;;;;;5030966;28;20470;-72
2023/01/07 00:36:37;;;;;;;14.50;9.13;;;11.30;1.00;;;;;;5030173;28;20803;-72
2023/01/07 00:39:06;;;;;;;35.87;18.30;;;11.30;1.00;;;;;;5027898;28;20897;-70
2023/01/07 00:41:32;;;;;;;52.87;23.97;;;11.30;1.00;;;;;;5027756;28;20598;-69
2023/01/07 00:43:58;;;;;;;43.67;23.13;;;11.20;1.00;;;;;;5029300;28;20917;-70
2023/01/07 00:46:23;;;;;;;17.80;11.97;;;11.20;1.00;;;;;;5027045;28;20185;-70
2023/01/07 00:48:49;;;;;;;13.23;8.47;;;11.20;1.00;;;;;;5029686;28;20182;-70
2023/01/07 00:51:16;;;;;;;6.83;6.13;;;11.20;1.00;;;;;;5019653;28;20193;-70
2023/01/07 00:53:42;;;;;;;4.80;3.90;;;11.20;1.00;;;;;;5028189;28;20201;-70
2023/01/07 00:56:12;;;;;;;4.90;3.50;;;11.20;1.00;;;;;;5028003;28;20423;-70
2023/01/07 00:58:38;;;;;;;3.90;3.40;;;11.20;1.00;;;;;;5033803;28;20442;-71
2023/01/07 01:01:04;;;;;;;4.70;3.10;;;11.20;1.00;;;;;;5031800;28;20606;-67
2023/01/07 01:03:31;;;;;;;3.07;2.57;;;11.20;1.00;;;;;;5019151;28;20182;-69
2023/01/07 01:06:05;;;;;;;3.30;2.70;;;11.30;1.00;;;;;;5023073;28;20724;-71
2023/01/07 01:08:31;;;;;;;4.07;3.67;;;11.30;1.00;;;;;;5025164;28;20444;-69
2023/01/07 01:11:05;;;;;;;4.70;4.20;;;11.30;1.00;;;;;;5028428;28;20482;-70
2023/01/07 01:13:32;;;;;;;3.87;3.30;;;11.30;1.00;;;;;;5029784;28;20204;-71
2023/01/07 01:15:58;;;;;;;4.03;3.63;;;11.30;1.00;;;;;;5028945;28;20421;-70
2023/01/07 01:18:23;;;;;;;3.40;3.10;;;11.20;1.00;;;;;;5027693;28;20417;-70
2023/01/07 01:20:49;;;;;;;4.13;3.43;;;11.30;1.00;;;;;;5030394;28;20201;-69
2023/01/07 01:23:14;;;;;;;3.80;3.30;;;11.30;1.00;;;;;;5038439;28;20178;-69
2023/01/07 01:25:40;;;;;;;3.20;2.73;;;11.30;1.00;;;;;;5031082;28;20185;-70
2023/01/07 01:28:06;;;;;;;2.50;2.27;;;11.30;1.00;;;;;;5029386;28;20249;-70
2023/01/07 01:30:31;;;;;;;3.30;2.10;;;11.30;1.00;;;;;;5029104;28;20260;-71
2023/01/07 01:32:57;;;;;;;2.83;2.40;;;11.30;1.00;;;;;;5028337;28;20420;-70
2023/01/07 01:35:22;;;;;;;2.90;2.43;;;11.30;1.00;;;;;;5029422;28;20225;-69
2023/01/07 01:37:48;;;;;;;2.60;2.17;;;11.30;1.00;;;;;;5027077;28;20677;-70
2023/01/07 01:40:13;;;;;;;5.27;2.50;;;11.20;1.00;;;;;;5028711;28;20315;-70
2023/01/07 01:42:39;;;;;;;2.93;2.30;;;11.20;1.00;;;;;;5025389;28;20241;-70
2023/01/07 01:45:05;;;;;;;3.63;2.10;;;11.20;1.00;;;;;;5026319;28;20245;-71
2023/01/07 01:47:39;;;;;;;4.20;2.00;;;11.30;1.00;;;;;;5031094;28;20188;-71
2023/01/07 01:50:16;;;;;;;2.37;2.10;;;11.20;1.00;;;;;;5022720;28;20451;-69
2023/01/07 01:52:56;;;;;;;3.47;1.97;;;11.30;1.00;;;;;;5026926;28;20466;-69
2023/01/07 01:55:27;;;;;;;3.10;2.33;;;11.20;1.00;;;;;;5027080;28;20471;-70
2023/01/07 01:57:57;;;;;;;2.30;2.10;;;11.20;1.00;;;;;;5028058;28;20977;-70
2023/01/07 02:00:22;;;;;;;1.97;1.87;;;11.20;1.00;;;;;;5025496;28;20607;-70
2023/01/07 02:02:51;;;;;;;3.70;1.90;;;11.10;1.00;;;;;;5026502;28;20499;-70
2023/01/07 02:05:17;;;;;;;2.17;1.97;;;11.10;1.00;;;;;;5027842;28;20186;-70
2023/01/07 02:07:43;;;;;;;2.50;2.30;;;11.10;1.00;;;;;;5027316;28;20510;-70
2023/01/07 02:10:15;;;;;;;2.20;2.00;;;11.10;1.00;;;;;;5031532;28;20974;-67
2023/01/07 02:12:45;;;;;;;2.53;2.00;;;11.10;1.00;;;;;;5026155;28;20178;-70
2023/01/07 02:15:24;;;;;;;2.23;1.90;;;11.10;1.00;;;;;;5027812;28;21009;-70
2023/01/07 02:18:18;;;;;;;3.00;1.73;;;11.20;1.00;;;;;;5026933;28;20440;-70
2023/01/07 02:21:12;;;;;;;3.73;1.97;;;11.20;1.00;;;;;;5026713;28;20551;-69
2023/01/07 02:24:19;;;;;;;2.67;2.07;;;11.20;1.00;;;;;;5026321;28;20424;-70
2023/01/07 02:27:00;;;;;;;7.23;2.10;;;11.20;1.00;;;;;;5025418;28;20490;-69
2023/01/07 02:30:05;;;;;;;2.57;2.30;;;11.20;1.00;;;;;;5027332;28;20443;-70
2023/01/07 02:33:12;;;;;;;2.43;2.00;;;11.20;1.00;;;;;;5021717;28;20432;-71
2023/01/07 02:35:59;;;;;;;2.17;2.00;;;11.20;1.00;;;;;;4939236;29;20440;-71
2023/01/07 02:38:55;;;;;;;2.70;2.10;;;11.20;1.00;;;;;;5022791;28;20835;-70
2023/01/07 02:41:43;;;;;;;1.90;1.70;;;11.20;1.00;;;;;;5012709;28;20929;-70
2023/01/07 02:44:45;;;;;;;2.50;2.07;;;11.20;1.00;;;;;;5021388;28;20420;-70
2023/01/07 02:47:22;;;;;;;2.60;2.20;;;11.20;1.00;;;;;;5022471;28;20455;-71
2023/01/07 02:49:48;;;;;;;2.93;1.87;;;11.20;1.00;;;;;;5027015;28;20443;-73
2023/01/07 02:52:26;;;;;;;2.40;2.10;;;11.10;1.00;;;;;;5023329;28;20624;-70
2023/01/07 02:55:04;;;;;;;2.20;1.90;;;11.30;1.00;;;;;;5025931;28;20459;-70
2023/01/07 02:57:39;;;;;;;2.80;1.97;;;11.20;1.00;;;;;;5027400;28;20523;-71
2023/01/07 03:00:14;;;;;;;2.20;2.00;;;11.20;1.00;;;;;;5023283;28;20525;-70
2023/01/07 03:02:53;;;;;;;2.77;1.90;;;11.20;1.00;;;;;;5017735;28;20424;-70
2023/01/07 03:05:57;;;;;;;3.13;2.10;;;11.30;1.00;;;;;;5027243;28;20519;-70
2023/01/07 03:08:45;;;;;;;1.87;1.77;;;11.20;1.00;;;;;;5026010;28;20427;-70
2023/01/07 03:11:11;;;;;;;2.73;2.10;;;11.20;1.00;;;;;;5043332;28;20759;-70
2023/01/07 03:13:51;;;;;;;1.97;1.73;;;11.20;1.00;;;;;;5010641;28;20441;-70
2023/01/07 03:16:24;;;;;;;2.00;1.77;;;11.10;1.00;;;;;;5026661;28;20868;-70
2023/01/07 03:19:00;;;;;;;2.57;2.00;;;11.20;1.00;;;;;;5026547;28;20471;-70
2023/01/07 03:21:28;;;;;;;2.33;1.80;;;11.20;1.00;;;;;;5033376;28;20445;-70
2023/01/07 03:23:56;;;;;;;3.50;2.10;;;11.20;1.00;;;;;;5037966;28;20424;-70
2023/01/07 03:26:25;;;;;;;2.20;1.80;;;11.20;1.00;;;;;;5030439;28;20424;-70
2023/01/07 03:28:51;;;;;;;1.90;1.70;;;11.20;1.00;;;;;;5031395;28;20456;-71
2023/01/07 03:31:19;;;;;;;2.20;2.00;;;11.20;1.00;;;;;;5029439;28;20811;-70
2023/01/07 03:34:05;;;;;;;2.10;1.90;;;11.30;1.00;;;;;;5033038;28;20580;-70
2023/01/07 03:36:38;;;;;;;2.50;1.70;;;11.30;1.00;;;;;;5030210;28;20911;-70
2023/01/07 03:39:07;;;;;;;2.50;2.00;;;11.30;1.00;;;;;;5031438;28;20495;-71
2023/01/07 03:44:16;;;;;;;2.50;1.90;;;11.30;1.00;;;;;;5031399;28;20407;-70
2023/01/07 03:46:43;;;;;;;2.00;1.80;;;11.30;1.00;;;;;;5029826;28;20428;-70
2023/01/07 03:49:08;;;;;;;2.43;1.70;;;11.30;1.00;;;;;;5030657;28;20597;-70
2023/01/07 03:51:34;;;;;;;2.13;1.93;;;11.30;1.00;;;;;;5034162;28;20473;-70
2023/01/07 03:53:59;;;;;;;2.10;1.90;;;11.20;1.00;;;;;;5039541;28;20240;-70
2023/01/07 03:56:25;;;;;;;2.40;2.00;;;11.20;1.00;;;;;;5029969;28;20564;-70
2023/01/07 03:58:50;;;;;;;2.10;1.80;;;11.20;1.00;;;;;;5033269;28;20184;-70
2023/01/07 04:01:16;;;;;;;3.20;2.10;;;11.30;1.00;;;;;;5047566;28;20208;-71
2023/01/07 04:03:41;;;;;;;4.27;2.17;;;11.30;1.00;;;;;;5029526;28;20186;-70
2023/01/07 04:06:07;;;;;;;2.00;1.80;;;11.30;1.00;;;;;;5029921;28;20239;-72
2023/01/07 04:08:32;;;;;;;2.90;1.93;;;11.20;1.00;;;;;;5030312;28;20434;-70
2023/01/07 04:10:58;;;;;;;2.23;1.90;;;11.20;1.00;;;;;;5027828;28;20217;-70
2023/01/07 04:13:23;;;;;;;2.33;1.93;;;11.20;1.00;;;;;;5027130;28;20178;-71
2023/01/07 04:15:48;;;;;;;3.00;2.20;;;11.10;1.00;;;;;;5030081;28;20260;-70
2023/01/07 04:18:14;;;;;;;1.77;1.67;;;11.10;1.00;;;;;;5033536;28;20502;-69
2023/01/07 04:20:39;;;;;;;2.53;1.83;;;11.10;1.00;;;;;;5029762;28;20202;-72
2023/01/07 04:23:05;;;;;;;2.70;1.90;;;11.10;1.00;;;;;;5037053;28;20189;-70
2023/01/07 04:25:31;;;;;;;2.20;2.00;;;11.00;1.00;;;;;;5030280;28;20174;-70
2023/01/07 04:27:56;;;;;;;2.33;1.80;;;11.10;1.00;;;;;;5030145;28;20174;-71
2023/01/07 04:30:22;;;;;;;2.27;1.80;;;11.00;1.00;;;;;;5028506;28;20281;-71
2023/01/07 04:32:47;;;;;;;2.63;1.90;;;11.10;1.00;;;;;;5028564;28;20188;-70
2023/01/07 04:35:13;;;;;;;3.10;2.03;;;11.10;1.00;;;;;;5028588;28;20209;-70
2023/01/07 04:37:38;;;;;;;2.00;1.80;;;11.10;1.00;;;;;;5029695;28;20252;-71
2023/01/07 04:40:04;;;;;;;4.70;1.83;;;11.10;1.00;;;;;;5029447;28;20297;-70
2023/01/07 04:42:30;;;;;;;2.30;1.90;;;11.00;1.00;;;;;;5028647;28;20526;-70
2023/01/07 04:44:55;;;;;;;2.03;1.83;;;11.10;1.00;;;;;;5028301;28;20491;-70
2023/01/07 04:47:21;;;;;;;1.87;1.70;;;11.00;1.00;;;;;;5034320;28;20188;-72
2023/01/07 04:49:46;;;;;;;1.83;1.70;;;11.00;1.00;;;;;;5029527;28;20224;-70
2023/01/07 04:52:12;;;;;;;2.33;1.93;;;11.00;1.00;;;;;;5038391;28;20260;-69
2023/01/07 04:54:37;;;;;;;2.03;1.73;;;11.00;1.00;;;;;;5032656;28;20198;-71
2023/01/07 04:57:03;;;;;;;2.03;1.70;;;11.00;1.00;;;;;;5029080;28;20169;-69
2023/01/07 04:59:28;;;;;;;2.30;2.00;;;11.00;1.00;;;;;;5028856;28;20176;-70
2023/01/07 05:01:54;;;;;;;1.70;1.60;;;11.00;1.00;;;;;;5028094;28;20174;-69
2023/01/07 05:04:19;;;;;;;2.40;1.90;;;11.00;1.00;;;;;;5029593;28;20656;-67
2023/01/07 05:06:45;;;;;;;1.90;1.63;;;11.00;1.00;;;;;;5023958;28;20190;-70
2023/01/07 05:09:11;;;;;;;1.83;1.67;;;11.00;1.00;;;;;;5029410;28;20261;-70
2023/01/07 05:11:36;;;;;;;1.90;1.70;;;11.00;1.00;;;;;;5028090;28;20256;-70
2023/01/07 05:14:02;;;;;;;2.33;2.00;;;11.00;1.00;;;;;;5028146;28;20194;-70
2023/01/07 05:16:28;;;;;;;2.03;1.83;;;11.00;1.00;;;;;;5028038;28;20174;-69
2023/01/07 05:18:53;;;;;;;2.57;2.13;;;11.00;1.00;;;;;;5029063;28;20530;-70
2023/01/07 05:21:19;;;;;;;2.80;2.00;;;11.00;1.00;;;;;;5033830;28;20193;-70
2023/01/07 05:23:44;;;;;;;1.93;1.83;;;11.00;1.00;;;;;;5037869;28;20267;-71
2023/01/07 05:26:10;;;;;;;5.40;1.80;;;11.00;1.00;;;;;;5027502;28;20173;-70
2023/01/07 05:28:35;;;;;;;2.80;2.07;;;11.00;1.00;;;;;;5029107;28;20178;-70
2023/01/07 05:31:01;;;;;;;3.10;2.00;;;11.10;1.00;;;;;;5026127;28;20201;-67
2023/01/07 05:33:27;;;;;;;1.50;1.40;;;11.10;1.00;;;;;;5027057;28;20194;-71
2023/01/07 05:35:52;;;;;;;2.67;1.80;;;11.10;1.00;;;;;;5028331;28;20166;-71
2023/01/07 05:38:18;;;;;;;2.73;1.90;;;11.00;1.00;;;;;;5028564;28;20169;-71
2023/01/07 05:40:47;;;;;;;2.00;1.77;;;11.00;1.00;;;;;;5028603;28;20194;-70
2023/01/07 05:43:13;;;;;;;2.50;2.00;;;11.00;1.00;;;;;;5028303;28;20182;-71
2023/01/07 05:45:38;;;;;;;2.37;1.60;;;11.00;1.00;;;;;;5028007;28;20421;-70
2023/01/07 05:48:04;;;;;;;2.50;2.30;;;11.00;1.00;;;;;;5027994;28;20177;-70
2023/01/07 05:50:30;;;;;;;1.80;1.70;;;11.00;1.00;;;;;;5028139;28;20403;-70
2023/01/07 05:52:55;;;;;;;2.90;1.80;;;11.00;1.00;;;;;;5041699;28;20268;-70
2023/01/07 05:55:21;;;;;;;3.67;1.93;;;10.80;1.00;;;;;;5029418;28;20202;-71
2023/01/07 05:57:46;;;;;;;2.47;1.97;;;11.00;1.00;;;;;;5027760;28;20178;-70
2023/01/07 06:00:12;;;;;;;2.20;2.00;;;11.00;1.00;;;;;;5028030;28;20213;-70
2023/01/07 06:02:38;;;;;;;2.10;1.90;;;11.00;1.00;;;;;;5027250;28;20189;-69
2023/01/07 06:05:04;;;;;;;3.70;1.77;;;11.00;1.00;;;;;;5028761;28;20420;-70
2023/01/07 06:07:29;;;;;;;2.70;1.97;;;11.00;1.00;;;;;;5028030;28;20529;-70
2023/01/07 06:09:55;;;;;;;1.93;1.77;;;11.00;1.00;;;;;;5028431;28;20468;-70
2023/01/07 06:12:20;;;;;;;2.03;1.80;;;11.00;1.00;;;;;;5027450;28;20678;-70
2023/01/07 06:14:46;;;;;;;5.90;1.90;;;10.90;1.00;;;;;;5028793;28;20200;-70
2023/01/07 06:17:11;;;;;;;2.10;1.90;;;10.90;1.00;;;;;;5025777;28;20174;-71
2023/01/07 06:19:37;;;;;;;3.60;2.10;;;10.90;1.00;;;;;;5027699;28;20181;-70
2023/01/07 06:22:02;;;;;;;3.43;2.20;;;10.90;1.00;;;;;;5025110;28;20250;-71
2023/01/07 06:24:28;;;;;;;2.20;2.00;;;10.90;1.00;;;;;;5028806;28;20178;-70
2023/01/07 06:26:53;;;;;;;2.23;2.03;;;10.90;1.00;;;;;;5026856;28;20470;-70
2023/01/07 06:29:19;;;;;;;1.90;1.80;;;10.90;1.00;;;;;;5026672;28;20182;-68
2023/01/07 06:31:44;;;;;;;2.30;2.00;;;10.90;1.00;;;;;;5023190;28;20272;-69
2023/01/07 06:34:10;;;;;;;2.33;2.13;;;10.80;1.00;;;;;;5027621;28;20691;-70
2023/01/07 06:36:35;;;;;;;2.33;2.13;;;10.90;1.00;;;;;;5026557;28;20178;-70
2023/01/07 06:39:01;;;;;;;2.90;2.50;;;10.80;1.00;;;;;;5027525;28;20556;-70
2023/01/07 06:41:26;;;;;;;2.37;2.00;;;10.80;1.00;;;;;;5024620;28;20276;-70
2023/01/07 06:43:52;;;;;;;2.47;2.27;;;10.80;1.00;;;;;;5026007;28;20552;-70
2023/01/07 06:46:17;;;;;;;1.83;1.73;;;10.80;1.00;;;;;;5025682;28;20190;-70
2023/01/07 06:48:42;;;;;;;2.30;1.97;;;10.80;1.00;;;;;;5025375;28;20170;-70
2023/01/07 06:51:08;;;;;;;2.23;1.90;;;10.80;1.00;;;;;;5024426;28;20208;-69
2023/01/07 06:53:33;;;;;;;2.63;2.20;;;10.80;1.00;;;;;;5027864;28;20186;-70
2023/01/07 06:55:59;;;;;;;2.40;2.20;;;10.80;1.00;;;;;;5026771;28;20170;-69
2023/01/07 06:58:24;;;;;;;2.30;2.10;;;10.80;1.00;;;;;;5029683;28;20232;-70
2023/01/07 07:00:50;;;;;;;2.37;1.93;;;10.80;1.00;;;;;;5029959;28;20640;-70
2023/01/07 07:03:15;;;;;;;2.27;2.07;;;10.80;1.00;;;;;;5030742;28;20182;-70
2023/01/07 07:05:41;;;;;;;2.27;1.87;;;10.80;1.00;;;;;;5030711;28;20170;-70
2023/01/07 07:08:06;;;;;;;2.77;2.20;;;10.80;1.00;;;;;;5034640;28;20186;-70
2023/01/07 07:10:32;;;;;;;2.20;2.00;;;10.80;1.00;;;;;;5031031;28;20197;-70
2023/01/07 07:12:58;;;;;;;2.30;1.90;;;10.90;1.00;;;;;;5031221;28;20189;-70
2023/01/07 07:15:23;;;;;;;3.30;2.03;;;10.90;1.00;;;;;;5032572;28;20198;-71
2023/01/07 07:17:49;;;;;;;2.43;2.10;;;10.90;1.00;;;;;;5030539;28;20235;-70
2023/01/07 07:20:14;;;;;;;5.40;2.10;;;10.90;1.00;;;;;;5034431;28;20683;-69
2023/01/07 07:22:45;;;;;;;3.03;2.30;;;10.90;1.00;;;;;;5041390;28;20181;-70
2023/01/07 07:25:11;;;;;;;3.10;2.00;;;11.00;1.00;;;;;;5031544;28;20186;-70
2023/01/07 07:27:36;;;;;;;2.43;2.00;;;11.00;1.00;;;;;;5030630;28;20436;-71
2023/01/07 07:30:02;;;;;;;2.57;2.20;;;11.00;1.00;;;;;;5029208;28;20278;-70
2023/01/07 07:32:28;;;;;;;2.40;1.93;;;11.00;1.00;;;;;;5028992;28;20170;-70
2023/01/07 07:34:54;;;;;;;2.17;1.83;;;11.00;1.00;;;;;;5029633;28;20876;-71
2023/01/07 07:37:20;;;;;;;1.87;1.67;;;11.00;1.00;;;;;;5028713;28;20596;-70
2023/01/07 07:39:46;;;;;;;3.23;2.20;;;11.00;1.00;;;;;;5029920;28;20461;-70
2023/01/07 07:42:11;;;;;;;2.33;2.13;;;11.10;1.00;;;;;;5029515;28;20180;-70
2023/01/07 07:44:37;;;;;;;2.53;2.03;;;11.00;1.00;;;;;;5029233;28;20186;-70
2023/01/07 07:47:02;;;;;;;2.13;1.93;;;11.00;1.00;;;;;;5030986;28;20189;-70
2023/01/07 07:49:28;;;;;;;4.90;1.87;;;11.00;1.00;;;;;;5030069;28;20232;-70
2023/01/07 07:51:54;;;;;;;1.93;1.60;;;11.00;1.00;;;;;;5028553;28;20195;-70
2023/01/07 07:54:19;;;;;;;1.70;1.60;;;11.00;1.00;;;;;;5030873;28;20441;-67
2023/01/07 07:56:45;;;;;;;1.60;1.50;;;11.10;1.00;;;;;;5026187;28;20193;-70
2023/01/07 07:59:10;;;;;;;2.10;1.90;;;11.10;1.00;;;;;;5024352;28;20182;-70
2023/01/07 17:16:29;;;;;;;7.07;4.90;;;9.20;1.00;;;;;;5059338;28;20841;-71
2023/01/07 17:18:56;;;;;;;7.77;5.57;;;9.20;1.00;;;;;;5059951;28;20246;-72
2023/01/07 17:21:52;;;;;;;9.10;6.20;;;9.40;1.00;;;;;;5062857;28;20447;-71
2023/01/07 17:24:27;;;;;;;11.90;7.87;;;9.60;1.00;;;;;;5057771;28;20426;-72
2023/01/07 17:26:56;;;;;;;9.67;6.60;;;9.80;1.00;;;;;;5060835;28;20513;-72
2023/01/07 17:29:30;;;;;;;6.00;4.67;;;9.90;1.00;;;;;;5065912;28;20419;-71
2023/01/07 17:31:55;;;;;;;7.30;5.20;;;10.00;1.00;;;;;;5055455;28;20993;-72
2023/01/07 17:34:21;;;;;;;9.50;5.83;;;10.10;1.00;;;;;;5066226;28;20505;-72
2023/01/07 17:36:47;;;;;;;20.50;10.70;;;10.20;1.00;;;;;;5058240;28;20168;-72
2023/01/07 17:39:12;;;;;;;18.57;10.83;;;10.30;1.00;;;;;;5062703;28;20196;-72
2023/01/07 17:44:22;;;;;;;13.70;8.13;;;10.40;1.00;;;;;;5060465;28;20195;-72
2023/01/07 17:46:47;;;;;;;10.43;5.53;;;10.40;1.00;;;;;;5053845;28;20439;-73
2023/01/07 17:49:13;;;;;;;6.57;5.60;;;10.40;1.00;;;;;;5061042;28;20775;-72
2023/01/07 17:51:42;;;;;;;14.53;8.10;;;10.40;1.00;;;;;;5049096;28;20193;-72
2023/01/07 17:54:19;;;;;;;19.80;10.67;;;10.40;1.00;;;;;;5063230;28;20177;-72
2023/01/07 17:56:45;;;;;;;15.37;8.50;;;10.40;1.00;;;;;;5055173;28;20454;-72
2023/01/07 17:59:15;;;;;;;20.27;10.80;;;10.40;1.00;;;;;;5064245;28;20411;-72
2023/01/07 18:01:41;;;;;;;10.70;7.37;;;10.90;1.00;;;;;;5050010;28;20221;-72
2023/01/07 18:04:06;;;;;;;15.00;9.37;;;10.50;1.00;;;;;;5064497;28;20504;-72
2023/01/07 18:06:34;;;;;;;10.33;7.13;;;10.30;1.00;;;;;;5061239;28;20173;-71
2023/01/07 18:09:03;;;;;;;7.97;6.53;;;10.40;1.00;;;;;;5056254;28;20192;-72
2023/01/07 18:14:15;;;;;;;6.10;5.00;;;10.30;1.00;;;;;;5050443;28;20560;-71
2023/01/07 18:16:41;;;;;;;8.70;6.90;;;10.30;1.00;;;;;;5059211;28;20743;-71
2023/01/07 18:19:11;;;;;;;9.10;6.90;;;10.30;1.00;;;;;;5060853;28;20173;-71
2023/01/07 18:21:36;;;;;;;7.53;6.27;;;10.20;1.00;;;;;;5057950;28;20470;-71
2023/01/07 18:24:02;;;;;;;8.53;5.97;;;10.30;1.00;;;;;;5068974;28;20461;-71
2023/01/07 18:26:27;;;;;;;7.10;4.97;;;10.30;1.00;;;;;;5055157;28;20548;-72
2023/01/07 18:28:53;;;;;;;4.93;4.10;;;10.20;1.00;;;;;;5049049;28;20178;-70
2023/01/07 18:31:18;;;;;;;6.77;4.80;;;10.20;1.00;;;;;;5044044;28;20197;-74
2023/01/07 18:33:44;;;;;;;6.70;4.40;;;10.20;1.00;;;;;;5043914;28;20192;-71
2023/01/07 18:36:10;;;;;;;6.27;4.37;;;10.30;1.00;;;;;;5041526;28;20284;-71
2023/01/07 18:38:36;;;;;;;6.23;5.23;;;10.20;1.00;;;;;;5044861;28;20560;-71
2023/01/07 18:41:01;;;;;;;6.00;4.60;;;10.20;1.00;;;;;;5047739;28;20455;-72
2023/01/07 18:43:27;;;;;;;6.03;4.27;;;10.20;1.00;;;;;;5045306;28;20239;-72
2023/01/07 18:45:52;;;;;;;4.70;3.73;;;10.20;1.00;;;;;;5049779;28;20177;-71
2023/01/07 18:48:18;;;;;;;4.83;4.33;;;10.20;1.00;;;;;;5045839;28;20185;-71
2023/01/07 18:50:46;;;;;;;5.23;4.40;;;10.20;1.00;;;;;;5042981;28;20247;-71
2023/01/07 18:53:12;;;;;;;4.93;4.43;;;10.20;1.00;;;;;;5055948;28;20180;-71
2023/01/07 18:55:39;;;;;;;10.90;4.40;;;10.20;1.00;;;;;;5045769;28;20466;-71
2023/01/07 18:58:05;;;;;;;5.13;4.30;;;10.10;1.00;;;;;;5040627;28;20270;-71
2023/01/07 19:00:31;;;;;;;5.93;4.50;;;10.10;1.00;;;;;;5038742;28;20459;-72
2023/01/07 19:02:57;;;;;;;7.03;4.93;;;10.10;1.00;;;;;;5046230;28;20423;-72
2023/01/07 19:05:23;;;;;;;5.77;5.00;;;10.10;1.00;;;;;;5040878;28;20276;-72
2023/01/07 19:07:49;;;;;;;5.93;4.77;;;10.10;1.00;;;;;;5046343;28;20514;-71
2023/01/07 19:10:15;;;;;;;6.30;4.77;;;10.10;1.00;;;;;;5030638;28;20456;-71
2023/01/07 19:12:40;;;;;;;5.90;5.00;;;10.10;1.00;;;;;;5038849;28;20196;-72
2023/01/07 19:15:06;;;;;;;6.30;4.70;;;10.10;1.00;;;;;;5042927;28;20292;-72
2023/01/07 19:17:32;;;;;;;5.77;5.03;;;10.10;1.00;;;;;;5045757;28;20189;-72
2023/01/07 19:19:58;;;;;;;5.80;4.70;;;10.10;1.00;;;;;;5045222;28;20447;-72
2023/01/07 19:22:23;;;;;;;8.50;5.60;;;10.10;1.00;;;;;;5042050;28;20497;-71
2023/01/07 19:24:49;;;;;;;5.77;5.00;;;10.00;1.00;;;;;;5047603;28;20334;-71
2023/01/07 19:27:15;;;;;;;5.80;4.93;;;10.00;1.00;;;;;;5047678;28;20666;-72
2023/01/07 19:29:40;;;;;;;7.00;4.30;;;10.00;1.00;;;;;;5044346;28;20257;-71
2023/01/07 19:32:06;;;;;;;6.30;4.47;;;10.00;1.00;;;;;;5039366;28;20287;-72
2023/01/07 19:34:31;;;;;;;7.30;4.80;;;10.00;1.00;;;;;;5046153;28;20193;-70
2023/01/07 19:36:56;;;;;;;4.87;4.37;;;10.00;1.00;;;;;;5040880;28;20469;-72
2023/01/07 19:39:22;;;;;;;5.13;4.23;;;10.00;1.00;;;;;;5045917;28;20685;-73
2023/01/07 19:41:49;;;;;;;7.03;5.50;;;10.00;1.00;;;;;;5041297;28;20197;-71
2023/01/07 19:44:14;;;;;;;6.73;4.67;;;9.90;1.00;;;;;;5046324;28;20497;-72
2023/01/07 19:46:41;;;;;;;5.50;4.10;;;9.90;1.00;;;;;;5055519;28;20913;-72
2023/01/07 19:49:08;;;;;;;7.80;4.80;;;9.90;1.00;;;;;;5046193;28;20181;-72
2023/01/07 19:51:35;;;;;;;6.43;5.00;;;9.90;1.00;;;;;;5041239;28;20976;-72
2023/01/07 19:54:02;;;;;;;8.13;5.53;;;9.90;1.00;;;;;;5043708;28;20454;-72
2023/01/07 19:56:29;;;;;;;7.40;5.90;;;9.90;1.00;;;;;;5041984;28;20487;-72
2023/01/07 19:58:56;;;;;;;7.93;5.50;;;10.00;1.00;;;;;;5040194;28;20949;-73
2023/01/07 20:01:25;;;;;;;9.87;5.80;;;10.00;1.00;;;;;;5041759;28;20466;-72
2023/01/07 20:03:52;;;;;;;5.50;4.40;;;10.00;1.00;;;;;;5041538;28;20554;-72
2023/01/07 20:06:19;;;;;;;10.77;6.20;;;10.10;1.00;;;;;;5043043;28;20430;-73
2023/01/07 20:08:46;;;;;;;9.93;6.17;;;10.10;1.00;;;;;;5037922;28;20446;-72
2023/01/07 20:11:12;;;;;;;8.00;5.50;;;10.10;1.00;;;;;;5038762;28;20856;-72
2023/01/07 20:13:38;;;;;;;5.60;4.90;;;10.10;1.00;;;;;;5046161;28;20423;-72
2023/01/07 20:16:07;;;;;;;8.23;5.63;;;10.20;1.00;;;;;;5040371;28;20491;-73
2023/01/07 20:18:41;;;;;;;10.30;5.90;;;10.20;1.00;;;;;;5039971;28;20438;-72
2023/01/07 20:21:07;;;;;;;5.40;4.20;;;10.30;1.00;;;;;;5036021;28;20657;-72
2023/01/07 20:23:35;;;;;;;7.30;5.07;;;10.30;1.00;;;;;;5046291;28;20801;-72
2023/01/07 20:26:01;;;;;;;6.27;5.27;;;10.30;1.00;;;;;;5039463;28;20833;-73
2023/01/07 20:28:27;;;;;;;8.20;5.77;;;10.40;1.00;;;;;;5042224;28;20807;-71
2023/01/07 20:30:52;;;;;;;7.13;4.60;;;10.40;1.00;;;;;;5043880;28;20569;-71
2023/01/07 20:33:18;;;;;;;6.00;4.53;;;10.40;1.00;;;;;;5045293;28;21004;-72
2023/01/07 20:35:45;;;;;;;5.53;4.60;;;10.30;1.00;;;;;;5047794;28;20208;-72
2023/01/07 20:38:11;;;;;;;4.50;3.80;;;10.30;1.00;;;;;;5041020;28;20648;-72
2023/01/07 20:40:38;;;;;;;5.55;4.00;;;10.30;1.00;;;;;;5037897;28;20424;-72
2023/01/07 20:43:04;;;;;;;5.13;4.20;;;10.30;1.00;;;;;;5047003;28;20165;-72
2023/01/07 20:45:32;;;;;;;11.00;4.13;;;10.30;1.00;;;;;;5038524;28;20474;-72
2023/01/07 20:47:57;;;;;;;4.80;3.50;;;10.30;1.00;;;;;;5028482;28;20420;-71
2023/01/07 20:50:23;;;;;;;5.70;4.93;;;10.40;1.00;;;;;;5039814;28;20539;-72
2023/01/07 20:52:48;;;;;;;5.57;4.47;;;10.30;1.00;;;;;;5050746;28;20230;-72
2023/01/07 20:55:14;;;;;;;5.27;4.33;;;10.30;1.00;;;;;;5043468;28;20247;-72
2023/01/07 20:57:39;;;;;;;5.17;4.50;;;10.30;1.00;;;;;;5047534;28;20411;-72
2023/01/07 21:00:06;;;;;;;4.73;4.03;;;10.20;1.00;;;;;;5040297;28;20201;-72
2023/01/07 21:02:31;;;;;;;5.20;4.70;;;10.20;1.00;;;;;;5042269;28;20178;-72
2023/01/07 21:04:57;;;;;;;4.97;4.33;;;10.20;1.00;;;;;;5046193;28;20725;-72
2023/01/07 21:07:22;;;;;;;5.83;4.13;;;10.20;1.00;;;;;;5045059;28;20235;-72
2023/01/07 21:09:48;;;;;;;4.37;3.97;;;10.20;1.00;;;;;;5031278;28;20197;-72
2023/01/07 21:12:13;;;;;;;4.40;3.80;;;10.20;1.00;;;;;;5044058;28;20184;-72
2023/01/07 21:14:39;;;;;;;7.93;4.47;;;10.30;1.00;;;;;;5042284;28;20210;-72
2023/01/07 21:17:04;;;;;;;5.43;4.13;;;10.30;1.00;;;;;;5045486;28;20227;-71
2023/01/07 21:19:30;;;;;;;4.40;4.00;;;10.30;1.00;;;;;;5039013;28;20533;-72
2023/01/07 21:21:55;;;;;;;5.50;4.40;;;10.40;1.00;;;;;;5041575;28;20181;-72
2023/01/07 21:24:21;;;;;;;4.60;3.90;;;10.40;1.00;;;;;;5052486;28;20192;-72
2023/01/07 21:26:47;;;;;;;5.33;4.33;;;10.40;1.00;;;;;;5047378;28;20650;-72
2023/01/07 21:29:14;;;;;;;4.97;4.03;;;10.40;1.00;;;;;;5041845;28;20264;-72
2023/01/07 21:31:41;;;;;;;4.77;4.07;;;10.40;1.00;;;;;;5042159;28;20204;-72
2023/01/07 21:34:06;;;;;;;5.27;3.90;;;10.40;1.00;;;;;;5047116;28;20416;-73
2023/01/07 21:36:32;;;;;;;4.37;3.50;;;10.50;1.00;;;;;;5044632;28;20438;-72
2023/01/07 21:38:58;;;;;;;5.77;3.90;;;10.40;1.00;;;;;;5043489;28;20253;-72
2023/01/07 21:41:25;;;;;;;5.47;4.10;;;10.50;1.00;;;;;;5046044;28;20220;-72
2023/01/07 21:43:50;;;;;;;4.30;3.87;;;10.40;1.00;;;;;;5045072;28;20440;-72
2023/01/07 21:46:16;;;;;;;4.47;3.80;;;10.40;1.00;;;;;;5041532;28;20870;-71
2023/01/07 21:48:43;;;;;;;5.47;3.70;;;10.40;1.00;;;;;;5041591;28;20268;-69
2023/01/07 21:51:17;;;;;;;4.10;3.67;;;10.40;1.00;;;;;;5038591;28;20343;-72
2023/01/07 21:53:42;;;;;;;6.40;4.50;;;10.30;1.00;;;;;;5051783;28;20402;-72
2023/01/07 21:56:11;;;;;;;5.97;4.60;;;10.30;1.00;;;;;;5047222;28;20463;-72
2023/01/07 21:58:37;;;;;;;10.93;4.53;;;10.30;1.00;;;;;;5046992;28;20185;-71
2023/01/07 22:01:04;;;;;;;4.63;3.70;;;10.20;1.00;;;;;;5042348;28;20526;-71
2023/01/07 22:03:29;;;;;;;5.73;3.93;;;10.30;1.00;;;;;;5051725;28;20411;-72
2023/01/07 22:05:56;;;;;;;8.77;5.13;;;10.20;1.00;;;;;;5042621;28;20435;-70
2023/01/07 22:08:22;;;;;;;5.97;3.90;;;10.20;1.00;;;;;;5051603;28;20208;-72
2023/01/07 22:10:48;;;;;;;5.07;3.97;;;10.20;1.00;;;;;;5042745;28;20984;-72
2023/01/07 22:13:13;;;;;;;8.00;4.70;;;10.30;1.00;;;;;;5050587;28;20647;-72
2023/01/07 22:15:39;;;;;;;5.30;4.17;;;10.30;1.00;;;;;;5040560;28;20648;-72
2023/01/07 22:18:04;;;;;;;5.10;3.90;;;10.30;1.00;;;;;;5041954;28;20250;-71
2023/01/07 22:20:30;;;;;;;4.50;3.83;;;10.40;1.00;;;;;;5045984;28;20213;-71
2023/01/07 22:22:55;;;;;;;5.10;4.37;;;10.40;1.00;;;;;;5039972;28;20260;-73